Terminal Aerodrome Forecast
Issued by NWS

Current Version | Previous Version | Text Only | Print | Product List | Glossary Off
Versions: 1 2 3 4 5 6 7 8 9 10 11 12 13 14 15 16 17 18 19 20 21 22 23 24 25 26 27 28 29 30 31 32 33 34 35 36 37 38 39 40

000
FTUS41 KRNK 302321
TAFLWB
TAF
KLWB 302321Z 3100/3124 20004KT P6SM SCT050
     FM310300 19003KT P6SM SCT035 BKN130
     FM310900 00000KT 2SM BR SCT040 BKN110
     FM311300 24003KT P6SM VCSH SCT009 BKN050
     FM312000 24007KT P6SM -SHRA VCTS BKN045CB=

USA.gov is the U.S. government's official web portal to all federal, state and local government web resources and services.